sensor_id;sensor_type;location;lat;lon;timestamp;temperature;humidity
21787;DHT22;11055;50.870;4.316;2024-03-22T00:01:47;13.30;99.90
21787;DHT22;11055;50.870;4.316;2024-03-22T00:04:13;13.30;99.90
21787;DHT22;11055;50.870;4.316;2024-03-22T00:06:41;13.30;99.90
21787;DHT22;11055;50.870;4.316;2024-03-22T00:09:07;13.30;99.90
21787;DHT22;11055;50.870;4.316;2024-03-22T00:11:34;13.30;99.90
21787;DHT22;11055;50.870;4.316;2024-03-22T00:14:00;13.10;99.90
21787;DHT22;11055;50.870;4.316;2024-03-22T00:16:27;13.10;99.90
21787;DHT22;11055;50.870;4.316;2024-03-22T00:18:53;13.10;99.90
21787;DHT22;11055;50.870;4.316;2024-03-22T00:21:18;13.20;99.90
21787;DHT22;11055;50.870;4.316;2024-03-22T00:23:45;13.20;99.90
21787;DHT22;11055;50.870;4.316;2024-03-22T00:26:10;13.30;99.90
21787;DHT22;11055;50.870;4.316;2024-03-22T00:28:36;13.20;99.90
21787;DHT22;11055;50.870;4.316;2024-03-22T00:31:02;13.20;99.90
21787;DHT22;11055;50.870;4.316;2024-03-22T00:33:28;13.30;99.90
21787;DHT22;11055;50.870;4.316;2024-03-22T00:35:53;13.30;99.90
21787;DHT22;11055;50.870;4.316;2024-03-22T00:38:19;13.20;99.90
21787;DHT22;11055;50.870;4.316;2024-03-22T00:40:45;13.20;99.90
21787;DHT22;11055;50.870;4.316;2024-03-22T00:43:10;13.20;99.90
21787;DHT22;11055;50.870;4.316;2024-03-22T00:45:37;13.20;99.90
21787;DHT22;11055;50.870;4.316;2024-03-22T00:48:03;13.30;99.90
21787;DHT22;11055;50.870;4.316;2024-03-22T00:50:29;13.20;99.90
21787;DHT22;11055;50.870;4.316;2024-03-22T00:52:54;13.30;99.90
21787;DHT22;11055;50.870;4.316;2024-03-22T00:55:23;13.20;99.90
21787;DHT22;11055;50.870;4.316;2024-03-22T00:57:49;13.20;99.90
21787;DHT22;11055;50.870;4.316;2024-03-22T01:00:15;13.10;99.90
21787;DHT22;11055;50.870;4.316;2024-03-22T01:02:42;13.10;99.90
21787;DHT22;11055;50.870;4.316;2024-03-22T01:05:08;13.00;99.90
21787;DHT22;11055;50.870;4.316;2024-03-22T01:07:34;13.10;99.90
21787;DHT22;11055;50.870;4.316;2024-03-22T01:09:59;12.90;99.90
21787;DHT22;11055;50.870;4.316;2024-03-22T01:12:25;12.90;99.90
21787;DHT22;11055;50.870;4.316;2024-03-22T01:14:51;12.80;99.90
21787;DHT22;11055;50.870;4.316;2024-03-22T01:17:16;12.70;99.90
21787;DHT22;11055;50.870;4.316;2024-03-22T01:19:42;12.80;99.90
21787;DHT22;11055;50.870;4.316;2024-03-22T01:22:08;12.80;99.90
21787;DHT22;11055;50.870;4.316;2024-03-22T01:24:33;12.70;99.90
21787;DHT22;11055;50.870;4.316;2024-03-22T01:26:59;12.70;99.90
21787;DHT22;11055;50.870;4.316;2024-03-22T01:29:24;12.70;99.90
21787;DHT22;11055;50.870;4.316;2024-03-22T01:31:50;12.70;99.90
21787;DHT22;11055;50.870;4.316;2024-03-22T01:34:16;12.60;99.90
21787;DHT22;11055;50.870;4.316;2024-03-22T01:36:41;12.50;99.90
21787;DHT22;11055;50.870;4.316;2024-03-22T01:39:07;12.50;99.90
21787;DHT22;11055;50.870;4.316;2024-03-22T01:41:33;12.50;99.90
21787;DHT22;11055;50.870;4.316;2024-03-22T01:43:59;12.60;99.90
21787;DHT22;11055;50.870;4.316;2024-03-22T01:46:25;12.60;99.90
21787;DHT22;11055;50.870;4.316;2024-03-22T01:48:51;12.60;99.90
21787;DHT22;11055;50.870;4.316;2024-03-22T01:51:17;12.50;99.90
21787;DHT22;11055;50.870;4.316;2024-03-22T01:53:43;12.50;99.90
21787;DHT22;11055;50.870;4.316;2024-03-22T01:56:09;12.50;99.90
21787;DHT22;11055;50.870;4.316;2024-03-22T01:58:36;12.40;99.90
21787;DHT22;11055;50.870;4.316;2024-03-22T02:01:01;12.40;99.90
21787;DHT22;11055;50.870;4.316;2024-03-22T02:03:27;12.40;99.90
21787;DHT22;11055;50.870;4.316;2024-03-22T02:05:53;12.40;99.90
21787;DHT22;11055;50.870;4.316;2024-03-22T02:08:19;12.30;99.90
21787;DHT22;11055;50.870;4.316;2024-03-22T02:10:45;12.20;99.90
21787;DHT22;11055;50.870;4.316;2024-03-22T02:13:10;12.20;99.90
21787;DHT22;11055;50.870;4.316;2024-03-22T02:15:36;12.30;99.90
21787;DHT22;11055;50.870;4.316;2024-03-22T02:18:02;12.30;99.90
21787;DHT22;11055;50.870;4.316;2024-03-22T02:20:27;12.30;99.90
21787;DHT22;11055;50.870;4.316;2024-03-22T02:22:53;12.30;99.90
21787;DHT22;11055;50.870;4.316;2024-03-22T02:25:19;12.30;99.90
21787;DHT22;11055;50.870;4.316;2024-03-22T02:27:44;12.30;99.90
21787;DHT22;11055;50.870;4.316;2024-03-22T02:30:10;12.20;99.90
21787;DHT22;11055;50.870;4.316;2024-03-22T02:32:36;12.20;99.90
21787;DHT22;11055;50.870;4.316;2024-03-22T02:35:03;12.20;99.90
21787;DHT22;11055;50.870;4.316;2024-03-22T02:37:28;12.30;99.90
21787;DHT22;11055;50.870;4.316;2024-03-22T02:39:54;12.30;99.90
21787;DHT22;11055;50.870;4.316;2024-03-22T02:42:19;12.30;99.90
21787;DHT22;11055;50.870;4.316;2024-03-22T02:44:45;12.40;99.90
21787;DHT22;11055;50.870;4.316;2024-03-22T02:47:11;12.30;99.90
21787;DHT22;11055;50.870;4.316;2024-03-22T02:49:40;12.30;99.90
21787;DHT22;11055;50.870;4.316;2024-03-22T02:52:05;12.30;99.90
21787;DHT22;11055;50.870;4.316;2024-03-22T02:54:31;12.20;99.90
21787;DHT22;11055;50.870;4.316;2024-03-22T02:56:57;12.10;99.90
21787;DHT22;11055;50.870;4.316;2024-03-22T02:59:26;12.00;99.90
21787;DHT22;11055;50.870;4.316;2024-03-22T03:01:52;11.90;99.90
21787;DHT22;11055;50.870;4.316;2024-03-22T03:04:17;11.90;99.90
21787;DHT22;11055;50.870;4.316;2024-03-22T03:06:43;11.80;99.90
21787;DHT22;11055;50.870;4.316;2024-03-22T03:09:11;11.80;99.90
21787;DHT22;11055;50.870;4.316;2024-03-22T03:11:39;11.70;99.90
21787;DHT22;11055;50.870;4.316;2024-03-22T03:14:05;11.70;99.90
21787;DHT22;11055;50.870;4.316;2024-03-22T03:16:30;11.80;99.90
21787;DHT22;11055;50.870;4.316;2024-03-22T03:18:56;11.80;99.90
21787;DHT22;11055;50.870;4.316;2024-03-22T03:21:21;11.80;99.90
21787;DHT22;11055;50.870;4.316;2024-03-22T03:23:47;11.80;99.90
21787;DHT22;11055;50.870;4.316;2024-03-22T03:26:13;11.70;99.90
21787;DHT22;11055;50.870;4.316;2024-03-22T03:28:38;11.70;99.90
21787;DHT22;11055;50.870;4.316;2024-03-22T03:31:04;11.70;99.90
21787;DHT22;11055;50.870;4.316;2024-03-22T03:33:30;11.60;99.90
21787;DHT22;11055;50.870;4.316;2024-03-22T03:35:56;11.70;99.90
21787;DHT22;11055;50.870;4.316;2024-03-22T03:38:21;11.70;99.90
21787;DHT22;11055;50.870;4.316;2024-03-22T03:40:48;11.70;99.90
21787;DHT22;11055;50.870;4.316;2024-03-22T03:43:13;11.70;99.90
21787;DHT22;11055;50.870;4.316;2024-03-22T03:45:39;11.70;99.90
21787;DHT22;11055;50.870;4.316;2024-03-22T03:48:05;11.70;99.90
21787;DHT22;11055;50.870;4.316;2024-03-22T03:50:33;11.70;99.90
21787;DHT22;11055;50.870;4.316;2024-03-22T03:52:58;11.60;99.90
21787;DHT22;11055;50.870;4.316;2024-03-22T03:55:24;11.70;99.90
21787;DHT22;11055;50.870;4.316;2024-03-22T03:57:50;11.80;99.90
21787;DHT22;11055;50.870;4.316;2024-03-22T04:00:17;11.80;99.90
21787;DHT22;11055;50.870;4.316;2024-03-22T04:02:42;11.70;99.90
21787;DHT22;11055;50.870;4.316;2024-03-22T04:05:08;11.70;99.90
21787;DHT22;11055;50.870;4.316;2024-03-22T04:07:33;11.60;99.90
21787;DHT22;11055;50.870;4.316;2024-03-22T04:09:59;11.60;99.90
21787;DHT22;11055;50.870;4.316;2024-03-22T04:12:28;11.60;99.90
21787;DHT22;11055;50.870;4.316;2024-03-22T04:14:54;11.60;99.90
21787;DHT22;11055;50.870;4.316;2024-03-22T04:17:20;11.50;99.90
21787;DHT22;11055;50.870;4.316;2024-03-22T04:19:46;11.60;99.90
21787;DHT22;11055;50.870;4.316;2024-03-22T04:22:11;11.60;99.90
21787;DHT22;11055;50.870;4.316;2024-03-22T04:24:37;11.60;99.90
21787;DHT22;11055;50.870;4.316;2024-03-22T04:27:03;11.60;99.90
21787;DHT22;11055;50.870;4.316;2024-03-22T04:29:29;11.60;99.90
21787;DHT22;11055;50.870;4.316;2024-03-22T04:31:55;11.70;99.90
21787;DHT22;11055;50.870;4.316;2024-03-22T04:34:20;11.60;99.90
21787;DHT22;11055;50.870;4.316;2024-03-22T04:36:46;11.60;99.90
21787;DHT22;11055;50.870;4.316;2024-03-22T04:39:12;11.60;99.90
21787;DHT22;11055;50.870;4.316;2024-03-22T04:41:37;11.60;99.90
21787;DHT22;11055;50.870;4.316;2024-03-22T04:44:03;11.60;99.90
21787;DHT22;11055;50.870;4.316;2024-03-22T04:46:29;11.60;99.90
21787;DHT22;11055;50.870;4.316;2024-03-22T04:48:54;11.50;99.90
21787;DHT22;11055;50.870;4.316;2024-03-22T04:51:20;11.40;99.90
21787;DHT22;11055;50.870;4.316;2024-03-22T04:53:46;11.30;99.90
21787;DHT22;11055;50.870;4.316;2024-03-22T04:56:12;11.40;99.90
21787;DHT22;11055;50.870;4.316;2024-03-22T04:58:37;11.40;99.90
21787;DHT22;11055;50.870;4.316;2024-03-22T05:01:03;11.40;99.90
21787;DHT22;11055;50.870;4.316;2024-03-22T05:03:29;11.50;99.90
21787;DHT22;11055;50.870;4.316;2024-03-22T05:05:55;11.50;99.90
21787;DHT22;11055;50.870;4.316;2024-03-22T05:08:21;11.40;99.90
21787;DHT22;11055;50.870;4.316;2024-03-22T05:10:47;11.30;99.90
21787;DHT22;11055;50.870;4.316;2024-03-22T05:13:13;11.30;99.90
21787;DHT22;11055;50.870;4.316;2024-03-22T05:15:38;11.30;99.90
21787;DHT22;11055;50.870;4.316;2024-03-22T05:18:04;11.30;99.90
21787;DHT22;11055;50.870;4.316;2024-03-22T05:20:30;11.30;99.90
21787;DHT22;11055;50.870;4.316;2024-03-22T05:22:55;11.30;99.90
21787;DHT22;11055;50.870;4.316;2024-03-22T05:25:21;11.30;99.90
21787;DHT22;11055;50.870;4.316;2024-03-22T05:27:47;11.30;99.90
21787;DHT22;11055;50.870;4.316;2024-03-22T05:30:13;11.30;99.90
21787;DHT22;11055;50.870;4.316;2024-03-22T05:32:41;11.30;99.90
21787;DHT22;11055;50.870;4.316;2024-03-22T05:35:07;11.30;99.90
21787;DHT22;11055;50.870;4.316;2024-03-22T05:37:33;11.30;99.90
21787;DHT22;11055;50.870;4.316;2024-03-22T05:40:00;11.20;99.90
21787;DHT22;11055;50.870;4.316;2024-03-22T05:42:26;11.20;99.90
21787;DHT22;11055;50.870;4.316;2024-03-22T05:44:51;11.20;99.90
21787;DHT22;11055;50.870;4.316;2024-03-22T05:47:18;11.10;99.90
21787;DHT22;11055;50.870;4.316;2024-03-22T05:49:44;11.20;99.90
21787;DHT22;11055;50.870;4.316;2024-03-22T05:52:09;11.20;99.90
21787;DHT22;11055;50.870;4.316;2024-03-22T05:54:35;11.20;99.90
21787;DHT22;11055;50.870;4.316;2024-03-22T05:57:02;11.20;99.90
21787;DHT22;11055;50.870;4.316;2024-03-22T05:59:28;11.10;99.90
21787;DHT22;11055;50.870;4.316;2024-03-22T06:01:53;11.20;99.90
21787;DHT22;11055;50.870;4.316;2024-03-22T06:04:19;11.20;99.90
21787;DHT22;11055;50.870;4.316;2024-03-22T06:06:45;11.10;99.90
21787;DHT22;11055;50.870;4.316;2024-03-22T06:09:10;11.10;99.90
21787;DHT22;11055;50.870;4.316;2024-03-22T06:11:36;11.10;99.90
21787;DHT22;11055;50.870;4.316;2024-03-22T06:14:02;11.10;99.90
21787;DHT22;11055;50.870;4.316;2024-03-22T06:16:28;11.10;99.90
21787;DHT22;11055;50.870;4.316;2024-03-22T06:18:53;11.10;99.90
21787;DHT22;11055;50.870;4.316;2024-03-22T06:21:19;11.20;99.90
21787;DHT22;11055;50.870;4.316;2024-03-22T06:23:50;11.30;99.90
21787;DHT22;11055;50.870;4.316;2024-03-22T06:26:16;11.20;99.90
21787;DHT22;11055;50.870;4.316;2024-03-22T06:28:42;11.10;99.90
21787;DHT22;11055;50.870;4.316;2024-03-22T06:31:07;11.10;99.90
21787;DHT22;11055;50.870;4.316;2024-03-22T06:33:33;11.10;99.90
21787;DHT22;11055;50.870;4.316;2024-03-22T06:35:59;11.10;99.90
21787;DHT22;11055;50.870;4.316;2024-03-22T06:38:25;11.10;99.90
21787;DHT22;11055;50.870;4.316;2024-03-22T06:40:52;11.00;99.90
21787;DHT22;11055;50.870;4.316;2024-03-22T06:43:18;11.00;99.90
21787;DHT22;11055;50.870;4.316;2024-03-22T06:45:44;11.00;99.90
21787;DHT22;11055;50.870;4.316;2024-03-22T06:48:10;11.00;99.90
21787;DHT22;11055;50.870;4.316;2024-03-22T06:50:35;11.10;99.90
21787;DHT22;11055;50.870;4.316;2024-03-22T06:53:01;11.10;99.90
21787;DHT22;11055;50.870;4.316;2024-03-22T06:55:26;11.10;99.90
21787;DHT22;11055;50.870;4.316;2024-03-22T06:57:52;11.20;99.90
21787;DHT22;11055;50.870;4.316;2024-03-22T07:00:18;11.20;99.90
21787;DHT22;11055;50.870;4.316;2024-03-22T07:02:44;11.20;99.90
21787;DHT22;11055;50.870;4.316;2024-03-22T07:05:10;11.20;99.90
21787;DHT22;11055;50.870;4.316;2024-03-22T07:07:37;11.20;99.90
21787;DHT22;11055;50.870;4.316;2024-03-22T07:10:03;11.10;99.90
21787;DHT22;11055;50.870;4.316;2024-03-22T07:12:31;11.20;99.90
21787;DHT22;11055;50.870;4.316;2024-03-22T07:14:58;11.20;99.90
21787;DHT22;11055;50.870;4.316;2024-03-22T07:17:24;11.20;99.90
21787;DHT22;11055;50.870;4.316;2024-03-22T07:19:51;11.20;99.90
21787;DHT22;11055;50.870;4.316;2024-03-22T07:22:17;11.30;99.90
21787;DHT22;11055;50.870;4.316;2024-03-22T07:24:43;11.20;99.90
21787;DHT22;11055;50.870;4.316;2024-03-22T07:27:09;11.20;99.90
21787;DHT22;11055;50.870;4.316;2024-03-22T07:29:35;11.30;99.90
21787;DHT22;11055;50.870;4.316;2024-03-22T07:32:01;11.30;99.90
21787;DHT22;11055;50.870;4.316;2024-03-22T07:34:26;11.40;99.90
21787;DHT22;11055;50.870;4.316;2024-03-22T07:36:52;11.40;99.90
21787;DHT22;11055;50.870;4.316;2024-03-22T07:39:18;11.40;99.90
21787;DHT22;11055;50.870;4.316;2024-03-22T07:41:44;11.30;99.90
21787;DHT22;11055;50.870;4.316;2024-03-22T07:44:10;11.30;99.90
21787;DHT22;11055;50.870;4.316;2024-03-22T07:46:36;11.30;99.90
21787;DHT22;11055;50.870;4.316;2024-03-22T07:49:02;11.40;99.90
21787;DHT22;11055;50.870;4.316;2024-03-22T07:51:29;11.40;99.90
21787;DHT22;11055;50.870;4.316;2024-03-22T07:53:55;11.40;99.90
21787;DHT22;11055;50.870;4.316;2024-03-22T07:56:21;11.30;99.90
21787;DHT22;11055;50.870;4.316;2024-03-22T07:58:47;11.40;99.90
21787;DHT22;11055;50.870;4.316;2024-03-22T08:01:13;11.30;99.90
21787;DHT22;11055;50.870;4.316;2024-03-22T08:03:39;11.30;99.90
21787;DHT22;11055;50.870;4.316;2024-03-22T08:06:05;11.40;99.90
21787;DHT22;11055;50.870;4.316;2024-03-22T08:08:30;11.20;99.90
21787;DHT22;11055;50.870;4.316;2024-03-22T08:10:56;11.30;99.90
21787;DHT22;11055;50.870;4.316;2024-03-22T08:13:22;11.30;99.90
21787;DHT22;11055;50.870;4.316;2024-03-22T08:15:47;11.30;99.90
21787;DHT22;11055;50.870;4.316;2024-03-22T08:18:13;11.40;99.90
21787;DHT22;11055;50.870;4.316;2024-03-22T08:20:42;11.50;99.90
21787;DHT22;11055;50.870;4.316;2024-03-22T08:23:07;11.50;99.90
21787;DHT22;11055;50.870;4.316;2024-03-22T08:25:33;11.50;99.90
21787;DHT22;11055;50.870;4.316;2024-03-22T08:27:59;11.50;99.90
21787;DHT22;11055;50.870;4.316;2024-03-22T08:30:25;11.60;99.90
21787;DHT22;11055;50.870;4.316;2024-03-22T08:32:52;11.70;99.90
21787;DHT22;11055;50.870;4.316;2024-03-22T08:35:18;11.80;99.90
21787;DHT22;11055;50.870;4.316;2024-03-22T08:37:43;11.70;99.90
21787;DHT22;11055;50.870;4.316;2024-03-22T08:40:09;11.70;99.90
21787;DHT22;11055;50.870;4.316;2024-03-22T08:42:36;11.90;99.90
21787;DHT22;11055;50.870;4.316;2024-03-22T08:45:02;12.00;99.90
21787;DHT22;11055;50.870;4.316;2024-03-22T08:47:30;11.90;99.90
21787;DHT22;11055;50.870;4.316;2024-03-22T08:49:56;11.90;99.90
21787;DHT22;11055;50.870;4.316;2024-03-22T08:52:23;12.00;99.90
21787;DHT22;11055;50.870;4.316;2024-03-22T08:54:52;12.00;99.90
21787;DHT22;11055;50.870;4.316;2024-03-22T08:57:18;12.10;99.90
21787;DHT22;11055;50.870;4.316;2024-03-22T08:59:45;12.30;99.90
21787;DHT22;11055;50.870;4.316;2024-03-22T09:02:10;12.40;99.90
21787;DHT22;11055;50.870;4.316;2024-03-22T09:04:37;12.50;99.90
21787;DHT22;11055;50.870;4.316;2024-03-22T09:07:05;12.50;99.90
21787;DHT22;11055;50.870;4.316;2024-03-22T09:09:31;12.40;99.90
21787;DHT22;11055;50.870;4.316;2024-03-22T09:11:56;12.30;99.90
21787;DHT22;11055;50.870;4.316;2024-03-22T09:14:22;12.30;99.90
21787;DHT22;11055;50.870;4.316;2024-03-22T09:16:48;12.40;99.90
21787;DHT22;11055;50.870;4.316;2024-03-22T09:19:13;12.40;99.90
21787;DHT22;11055;50.870;4.316;2024-03-22T09:21:39;12.40;99.90
21787;DHT22;11055;50.870;4.316;2024-03-22T09:24:05;12.30;99.90
21787;DHT22;11055;50.870;4.316;2024-03-22T09:26:32;12.30;99.90
21787;DHT22;11055;50.870;4.316;2024-03-22T09:28:58;12.50;99.90
21787;DHT22;11055;50.870;4.316;2024-03-22T09:31:24;12.60;99.90
21787;DHT22;11055;50.870;4.316;2024-03-22T09:33:49;12.70;99.90
21787;DHT22;11055;50.870;4.316;2024-03-22T09:36:15;12.50;99.90
21787;DHT22;11055;50.870;4.316;2024-03-22T09:38:41;12.50;99.90
21787;DHT22;11055;50.870;4.316;2024-03-22T09:41:07;12.40;99.90
21787;DHT22;11055;50.870;4.316;2024-03-22T09:43:33;12.50;99.90
21787;DHT22;11055;50.870;4.316;2024-03-22T09:46:00;12.50;99.90
21787;DHT22;11055;50.870;4.316;2024-03-22T09:48:27;12.60;99.90
21787;DHT22;11055;50.870;4.316;2024-03-22T09:50:53;12.60;99.90
21787;DHT22;11055;50.870;4.316;2024-03-22T09:53:22;12.80;99.90
21787;DHT22;11055;50.870;4.316;2024-03-22T09:55:49;12.80;99.90
21787;DHT22;11055;50.870;4.316;2024-03-22T09:58:15;12.80;99.90
21787;DHT22;11055;50.870;4.316;2024-03-22T10:00:44;12.70;99.90
21787;DHT22;11055;50.870;4.316;2024-03-22T10:03:12;12.80;99.90
21787;DHT22;11055;50.870;4.316;2024-03-22T10:05:38;12.90;99.90
21787;DHT22;11055;50.870;4.316;2024-03-22T10:08:04;12.90;99.90
21787;DHT22;11055;50.870;4.316;2024-03-22T10:10:31;13.00;99.90
21787;DHT22;11055;50.870;4.316;2024-03-22T10:12:59;13.00;99.90
21787;DHT22;11055;50.870;4.316;2024-03-22T10:15:26;12.90;99.90
21787;DHT22;11055;50.870;4.316;2024-03-22T10:17:52;13.00;99.90
21787;DHT22;11055;50.870;4.316;2024-03-22T10:20:20;13.10;99.90
21787;DHT22;11055;50.870;4.316;2024-03-22T10:22:58;12.90;99.90
21787;DHT22;11055;50.870;4.316;2024-03-22T10:25:26;12.70;99.90
21787;DHT22;11055;50.870;4.316;2024-03-22T10:27:54;12.70;99.90
21787;DHT22;11055;50.870;4.316;2024-03-22T10:30:20;12.80;99.90
21787;DHT22;11055;50.870;4.316;2024-03-22T10:32:46;12.80;99.90
21787;DHT22;11055;50.870;4.316;2024-03-22T10:35:14;12.90;99.90
21787;DHT22;11055;50.870;4.316;2024-03-22T10:37:40;12.80;99.90
21787;DHT22;11055;50.870;4.316;2024-03-22T10:40:06;12.80;99.90
21787;DHT22;11055;50.870;4.316;2024-03-22T10:42:40;12.90;99.90
21787;DHT22;11055;50.870;4.316;2024-03-22T10:45:07;13.10;99.90
21787;DHT22;11055;50.870;4.316;2024-03-22T10:47:34;13.30;99.90
21787;DHT22;11055;50.870;4.316;2024-03-22T10:50:10;12.90;99.90
21787;DHT22;11055;50.870;4.316;2024-03-22T10:52:52;12.80;99.90
21787;DHT22;11055;50.870;4.316;2024-03-22T10:55:30;12.80;99.90
21787;DHT22;11055;50.870;4.316;2024-03-22T10:57:58;12.80;99.90
21787;DHT22;11055;50.870;4.316;2024-03-22T11:00:29;12.70;99.90
21787;DHT22;11055;50.870;4.316;2024-03-22T11:02:55;12.70;99.90
21787;DHT22;11055;50.870;4.316;2024-03-22T11:05:22;12.60;99.90
21787;DHT22;11055;50.870;4.316;2024-03-22T11:07:47;12.60;99.90
21787;DHT22;11055;50.870;4.316;2024-03-22T11:10:13;12.60;99.90
21787;DHT22;11055;50.870;4.316;2024-03-22T11:12:40;12.70;99.90
21787;DHT22;11055;50.870;4.316;2024-03-22T11:15:06;12.70;99.90
21787;DHT22;11055;50.870;4.316;2024-03-22T11:17:32;12.70;99.90
21787;DHT22;11055;50.870;4.316;2024-03-22T11:19:57;12.60;99.90
21787;DHT22;11055;50.870;4.316;2024-03-22T11:22:25;12.70;99.90
21787;DHT22;11055;50.870;4.316;2024-03-22T11:24:52;12.70;99.90
21787;DHT22;11055;50.870;4.316;2024-03-22T11:27:18;12.50;99.90
21787;DHT22;11055;50.870;4.316;2024-03-22T11:29:45;12.50;99.90
21787;DHT22;11055;50.870;4.316;2024-03-22T11:32:12;12.50;99.90
21787;DHT22;11055;50.870;4.316;2024-03-22T11:34:39;12.60;99.90
21787;DHT22;11055;50.870;4.316;2024-03-22T11:37:08;12.70;99.90
21787;DHT22;11055;50.870;4.316;2024-03-22T11:39:39;12.60;99.90
21787;DHT22;11055;50.870;4.316;2024-03-22T11:42:06;12.50;99.90
21787;DHT22;11055;50.870;4.316;2024-03-22T11:44:36;12.50;99.90
21787;DHT22;11055;50.870;4.316;2024-03-22T11:47:04;12.50;99.90
21787;DHT22;11055;50.870;4.316;2024-03-22T11:49:30;12.60;99.90
21787;DHT22;11055;50.870;4.316;2024-03-22T11:51:56;12.60;99.90
21787;DHT22;11055;50.870;4.316;2024-03-22T11:54:22;12.60;99.90
21787;DHT22;11055;50.870;4.316;2024-03-22T11:56:51;12.60;99.90
21787;DHT22;11055;50.870;4.316;2024-03-22T11:59:19;12.60;99.90
21787;DHT22;11055;50.870;4.316;2024-03-22T12:01:46;12.70;99.90
21787;DHT22;11055;50.870;4.316;2024-03-22T12:04:13;12.70;99.90
21787;DHT22;11055;50.870;4.316;2024-03-22T12:06:43;12.70;99.90
21787;DHT22;11055;50.870;4.316;2024-03-22T12:09:09;12.80;99.90
21787;DHT22;11055;50.870;4.316;2024-03-22T12:11:37;13.00;99.90
21787;DHT22;11055;50.870;4.316;2024-03-22T12:14:03;13.00;99.90
21787;DHT22;11055;50.870;4.316;2024-03-22T12:16:29;12.90;99.90
21787;DHT22;11055;50.870;4.316;2024-03-22T12:18:54;12.80;99.90
21787;DHT22;11055;50.870;4.316;2024-03-22T12:21:20;12.80;99.90
21787;DHT22;11055;50.870;4.316;2024-03-22T12:23:46;12.70;99.90
21787;DHT22;11055;50.870;4.316;2024-03-22T12:26:11;12.60;99.90
21787;DHT22;11055;50.870;4.316;2024-03-22T12:28:37;12.40;99.90
21787;DHT22;11055;50.870;4.316;2024-03-22T12:31:04;12.50;99.90
21787;DHT22;11055;50.870;4.316;2024-03-22T12:33:30;12.60;99.90
21787;DHT22;11055;50.870;4.316;2024-03-22T12:35:57;12.50;99.90
21787;DHT22;11055;50.870;4.316;2024-03-22T12:38:22;12.50;99.90
21787;DHT22;11055;50.870;4.316;2024-03-22T12:40:49;12.50;99.90
21787;DHT22;11055;50.870;4.316;2024-03-22T12:43:15;12.50;99.90
21787;DHT22;11055;50.870;4.316;2024-03-22T12:45:41;12.50;99.90
21787;DHT22;11055;50.870;4.316;2024-03-22T12:48:06;12.60;99.90
21787;DHT22;11055;50.870;4.316;2024-03-22T12:50:32;12.50;99.90
21787;DHT22;11055;50.870;4.316;2024-03-22T12:52:59;12.50;99.90
21787;DHT22;11055;50.870;4.316;2024-03-22T12:55:24;12.40;99.90
21787;DHT22;11055;50.870;4.316;2024-03-22T12:57:51;12.40;99.90
21787;DHT22;11055;50.870;4.316;2024-03-22T13:00:17;12.40;99.90
21787;DHT22;11055;50.870;4.316;2024-03-22T13:02:46;12.40;99.90
21787;DHT22;11055;50.870;4.316;2024-03-22T13:05:12;12.40;99.90
21787;DHT22;11055;50.870;4.316;2024-03-22T13:07:38;12.50;99.90
21787;DHT22;11055;50.870;4.316;2024-03-22T13:10:04;12.50;99.90
21787;DHT22;11055;50.870;4.316;2024-03-22T13:12:30;12.50;99.90
21787;DHT22;11055;50.870;4.316;2024-03-22T13:14:57;12.50;99.90
21787;DHT22;11055;50.870;4.316;2024-03-22T13:17:23;12.50;99.90
21787;DHT22;11055;50.870;4.316;2024-03-22T13:19:49;12.50;99.90
21787;DHT22;11055;50.870;4.316;2024-03-22T13:22:15;12.50;99.90
21787;DHT22;11055;50.870;4.316;2024-03-22T13:24:45;12.40;99.90
21787;DHT22;11055;50.870;4.316;2024-03-22T13:27:11;12.50;99.90
21787;DHT22;11055;50.870;4.316;2024-03-22T13:29:38;12.60;99.90
21787;DHT22;11055;50.870;4.316;2024-03-22T13:32:04;12.80;99.90
21787;DHT22;11055;50.870;4.316;2024-03-22T13:34:35;12.90;99.90
21787;DHT22;11055;50.870;4.316;2024-03-22T13:37:02;12.80;99.90
21787;DHT22;11055;50.870;4.316;2024-03-22T13:39:28;12.80;99.90
21787;DHT22;11055;50.870;4.316;2024-03-22T13:41:57;12.70;99.90
21787;DHT22;11055;50.870;4.316;2024-03-22T13:44:23;12.70;99.90
21787;DHT22;11055;50.870;4.316;2024-03-22T13:46:51;12.70;99.90
21787;DHT22;11055;50.870;4.316;2024-03-22T13:49:18;12.60;99.90
21787;DHT22;11055;50.870;4.316;2024-03-22T13:51:47;12.50;99.90
21787;DHT22;11055;50.870;4.316;2024-03-22T13:54:13;12.50;99.90
21787;DHT22;11055;50.870;4.316;2024-03-22T13:56:39;12.50;99.90
21787;DHT22;11055;50.870;4.316;2024-03-22T13:59:05;12.60;99.90
21787;DHT22;11055;50.870;4.316;2024-03-22T14:01:40;12.40;99.90
21787;DHT22;11055;50.870;4.316;2024-03-22T14:04:07;12.40;99.90
21787;DHT22;11055;50.870;4.316;2024-03-22T14:06:33;12.20;99.90
21787;DHT22;11055;50.870;4.316;2024-03-22T14:08:59;12.20;99.90
21787;DHT22;11055;50.870;4.316;2024-03-22T14:11:33;12.20;99.90
21787;DHT22;11055;50.870;4.316;2024-03-22T14:13:58;12.30;99.90
21787;DHT22;11055;50.870;4.316;2024-03-22T14:16:24;12.20;99.90
21787;DHT22;11055;50.870;4.316;2024-03-22T14:18:50;12.20;99.90
21787;DHT22;11055;50.870;4.316;2024-03-22T14:21:17;12.10;99.90
21787;DHT22;11055;50.870;4.316;2024-03-22T14:23:48;12.10;99.90
21787;DHT22;11055;50.870;4.316;2024-03-22T14:26:15;12.10;99.90
21787;DHT22;11055;50.870;4.316;2024-03-22T14:28:41;12.10;99.90
21787;DHT22;11055;50.870;4.316;2024-03-22T14:31:08;12.10;99.90
21787;DHT22;11055;50.870;4.316;2024-03-22T14:33:35;12.10;99.90
21787;DHT22;11055;50.870;4.316;2024-03-22T14:36:01;12.10;99.90
21787;DHT22;11055;50.870;4.316;2024-03-22T14:38:27;12.00;99.90
21787;DHT22;11055;50.870;4.316;2024-03-22T14:40:53;11.90;99.90
21787;DHT22;11055;50.870;4.316;2024-03-22T14:43:20;11.90;99.90
21787;DHT22;11055;50.870;4.316;2024-03-22T14:45:46;12.00;99.90
21787;DHT22;11055;50.870;4.316;2024-03-22T14:48:11;11.90;99.90
21787;DHT22;11055;50.870;4.316;2024-03-22T14:50:37;11.80;99.90
21787;DHT22;11055;50.870;4.316;2024-03-22T14:53:06;11.70;99.90
21787;DHT22;11055;50.870;4.316;2024-03-22T14:55:31;11.70;99.90
21787;DHT22;11055;50.870;4.316;2024-03-22T14:57:57;11.60;99.90
21787;DHT22;11055;50.870;4.316;2024-03-22T15:00:23;11.60;99.90
21787;DHT22;11055;50.870;4.316;2024-03-22T15:02:52;11.60;99.90
21787;DHT22;11055;50.870;4.316;2024-03-22T15:05:18;11.50;99.90
21787;DHT22;11055;50.870;4.316;2024-03-22T15:07:44;11.50;99.90
21787;DHT22;11055;50.870;4.316;2024-03-22T15:10:09;11.40;99.90
21787;DHT22;11055;50.870;4.316;2024-03-22T15:12:35;11.50;99.90
21787;DHT22;11055;50.870;4.316;2024-03-22T15:15:00;11.60;99.90
21787;DHT22;11055;50.870;4.316;2024-03-22T15:17:26;11.60;99.90
21787;DHT22;11055;50.870;4.316;2024-03-22T15:19:52;11.60;99.90
21787;DHT22;11055;50.870;4.316;2024-03-22T15:22:18;11.70;99.90
21787;DHT22;11055;50.870;4.316;2024-03-22T15:24:46;11.60;99.90